Ottawa Macdonald-Cartier International Airport
CYOW : now visible

Airfield :











YOU CAN JOIN US ON...

 
LOGIN :

Register | Disclaimer

   EN    FR    IT 

 









Legend :    VFR   Marginal VFR   IFR   Intensive IFR   Very Intensive IFR
Visi :
Ceiling :
>= 8 km
>= 3000ft
5 to 8 km
1000 to 3000 ft
1500m to 5 km
500 to 1000 ft
800 to 1500m
200 to 500 ft
< 800m
< 200 ft
Symbols :   Thunderstorms  Fog  Heavy snow  Heavy precipitations  Wind > 20 kt






- Airport Elevation : 374 ft
- IATA code : YOW


CYOW - Ottawa Macdonald-Cartier International

CURRENT METAR :
  • 170000Z 13004KT 15SM FEW140 SCT180 BKN200 BKN250 19/11 A3012 RMK AS1AC2CC2CI1 SLP203 DENSITY ALT 700FT

EXPIRED METARs :
  • 162300Z 14004KT 15SM FEW090 SCT140 BKN180 19/10 A3013 RMK AC1AS3AC4 AC TR SLP206 DENSITY ALT 800FT
  • 162200Z 17003KT 15SM SCT120 OVC160 20/09 A3014 RMK AC3AS5 SLP211 DENSITY ALT 800FT
  • 162100Z 17005KT 15SM SCT140 OVC160 21/07 A3015 RMK AC3AS5 SLP213 DENSITY ALT 900FT
  • 162000Z 18005KT 15SM OVC160 20/07 A3016 RMK AS8 SLP218 DENSITY ALT 900FT

TAF TAF CYOW
Valid from the 17 at 00:00 until the 18 at 00:00 UTC


162340Z 1700/1724 13005KT P6SM FEW090 BKN160
FM170800 VRB03KT P6SM -SHRA FEW050 OVC090
FM171100 10005KT P6SM BKN080
FM171500 21012KT P6SM FEW080 RMK NXT FCST BY 170300Z
CZUL FIR / North America



MET'MAP, your aeronautical weather chart ! - Copyright ORBIFLY December 2007 - Disclaimer

ORBIFLY MET'MAP TEAM :

Programming & Development : Alexandra Zaïnal
Original concept : Baudouin d'Aumeries
Technical & hardware support : Manuel Goepfert
Assistance : Marc-Olivier Méhu




SOURCES & CREDITS :

   NOAA       Earth
Advisory